createdAt,value
2023-04-02T00:12:31.404Z,7.99
2023-04-02T00:32:31.475Z,7.94
2023-04-02T00:52:31.334Z,7.89
2023-04-02T01:12:31.268Z,7.90
2023-04-02T01:32:31.398Z,7.81
2023-04-02T01:52:31.377Z,7.76
2023-04-02T02:12:31.314Z,7.66
2023-04-02T02:32:31.411Z,7.46
2023-04-02T02:52:31.356Z,7.36
2023-04-02T03:12:31.247Z,7.36
2023-04-02T03:32:31.186Z,7.34
2023-04-02T03:52:31.270Z,7.21
2023-04-02T04:12:31.284Z,7.14
2023-04-02T04:32:31.276Z,7.14
2023-04-02T04:52:31.204Z,7.20
2023-04-02T05:12:31.207Z,7.22
2023-04-02T05:32:31.165Z,7.19
2023-04-02T05:52:31.171Z,7.25
2023-04-02T06:12:31.163Z,7.32
2023-04-02T06:32:31.194Z,7.42
2023-04-02T06:52:31.184Z,7.59
2023-04-02T07:12:31.088Z,7.79
2023-04-02T07:32:31.086Z,7.98
2023-04-02T07:52:31.086Z,8.34
2023-04-02T08:12:31.089Z,8.74
2023-04-02T08:32:31.109Z,9.23
2023-04-02T08:52:31.273Z,9.53
2023-04-02T09:12:31.128Z,10.00
2023-04-02T09:32:31.113Z,10.21
2023-04-02T09:52:31.035Z,10.13
2023-04-02T10:12:31.095Z,10.25
2023-04-02T10:32:31.131Z,10.59
2023-04-02T10:52:31.048Z,10.17
2023-04-02T11:12:31.150Z,10.74
2023-04-02T11:32:30.972Z,11.28
2023-04-02T11:52:30.985Z,9.21
2023-04-02T12:12:31.037Z,8.50
2023-04-02T12:32:30.904Z,8.50
2023-04-02T12:52:30.915Z,8.70
2023-04-02T13:12:30.929Z,8.99
2023-04-02T13:32:30.935Z,9.18
2023-04-02T13:52:30.949Z,9.09
2023-04-02T14:12:30.860Z,7.63
2023-04-02T14:32:30.886Z,7.62
2023-04-02T14:52:30.896Z,7.77
2023-04-02T15:12:30.905Z,7.57
2023-04-02T15:32:30.813Z,7.49
2023-04-02T15:52:30.832Z,7.45
2023-04-02T16:12:30.833Z,7.10
2023-04-02T16:32:30.846Z,6.89
2023-04-02T16:52:30.856Z,6.45
2023-04-02T17:12:30.920Z,6.27
2023-04-02T17:32:30.867Z,6.09
2023-04-02T17:52:30.815Z,5.68
2023-04-02T18:12:30.823Z,5.63
2023-04-02T18:32:30.787Z,5.52
2023-04-02T18:52:30.877Z,5.31
2023-04-02T19:12:30.913Z,5.25
2023-04-02T19:32:30.803Z,5.03
2023-04-02T19:52:30.825Z,4.86
2023-04-02T20:12:30.979Z,4.59
2023-04-02T20:32:30.819Z,4.38
2023-04-02T20:52:31.008Z,4.21
2023-04-02T21:12:31.043Z,4.04
2023-04-02T21:32:30.951Z,3.85
2023-04-02T21:52:30.990Z,3.55
2023-04-02T22:12:31.038Z,3.42
2023-04-02T22:32:30.963Z,3.31
2023-04-02T22:52:31.073Z,3.27
2023-04-02T23:12:31.033Z,3.27
2023-04-02T23:32:31.058Z,3.19
2023-04-02T23:52:31.029Z,3.22
